Austin/Bergstrom AFB, Texas
Current Conditions -  °F | °C
As of 1:53 AM on Sunday 23 Nov 2014 (Local Time) from KAUS Reporting Station
Broken Clouds Broken Clouds  
Wind Chill: 13°   Ceiling: 15000
Heat Index: 13°   Visibility: 9mi
Dew Point: 13°   Wind: 6mph
Humidity: 97%   Direction: 280°W
Pressure: 29.67"   Gusts: NA
Location:  30.2°N, 97.68°W
Report Text: KAUS 230753Z 28005KT 9SM SCT010 BKN150 13/13 A2967 RMK AO2 SLP044 T01330128 $
Loading
Personal Weather Stations






























Interactive Weather Map New forecast layout! Learn more

10-Day Weather Forecast

Advertisements
Track Severe Weather on mobile